sensor_id;sensor_type;location;lat;lon;timestamp;P1;durP1;ratioP1;P2;durP2;ratioP2
50483;SDS011;36409;52.168;20.878;2023-03-11T00:01:17;29.17;;;16.10;;
50483;SDS011;36409;52.168;20.878;2023-03-11T00:03:47;32.73;;;15.67;;
50483;SDS011;36409;52.168;20.878;2023-03-11T00:06:17;34.00;;;15.83;;
50483;SDS011;36409;52.168;20.878;2023-03-11T00:08:46;27.77;;;15.07;;
50483;SDS011;36409;52.168;20.878;2023-03-11T00:11:15;28.30;;;14.70;;
50483;SDS011;36409;52.168;20.878;2023-03-11T00:13:46;30.93;;;16.00;;
50483;SDS011;36409;52.168;20.878;2023-03-11T00:16:15;29.63;;;14.03;;
50483;SDS011;36409;52.168;20.878;2023-03-11T00:18:44;29.07;;;15.27;;
50483;SDS011;36409;52.168;20.878;2023-03-11T00:21:17;29.13;;;14.50;;
50483;SDS011;36409;52.168;20.878;2023-03-11T00:23:47;30.37;;;15.27;;
50483;SDS011;36409;52.168;20.878;2023-03-11T00:26:19;26.67;;;13.70;;
50483;SDS011;36409;52.168;20.878;2023-03-11T00:28:50;25.20;;;13.77;;
50483;SDS011;36409;52.168;20.878;2023-03-11T00:31:22;30.53;;;15.23;;
50483;SDS011;36409;52.168;20.878;2023-03-11T00:33:53;26.63;;;14.57;;
50483;SDS011;36409;52.168;20.878;2023-03-11T00:36:24;28.80;;;14.90;;
50483;SDS011;36409;52.168;20.878;2023-03-11T00:38:58;27.43;;;14.93;;
50483;SDS011;36409;52.168;20.878;2023-03-11T00:41:36;28.07;;;15.50;;
50483;SDS011;36409;52.168;20.878;2023-03-11T00:44:06;31.47;;;17.03;;
50483;SDS011;36409;52.168;20.878;2023-03-11T00:46:35;25.87;;;14.67;;
50483;SDS011;36409;52.168;20.878;2023-03-11T00:49:06;28.13;;;15.33;;
50483;SDS011;36409;52.168;20.878;2023-03-11T00:51:36;28.20;;;15.03;;
50483;SDS011;36409;52.168;20.878;2023-03-11T00:54:06;29.03;;;15.70;;
50483;SDS011;36409;52.168;20.878;2023-03-11T00:56:38;31.73;;;15.07;;
50483;SDS011;36409;52.168;20.878;2023-03-11T00:59:12;34.43;;;16.33;;
50483;SDS011;36409;52.168;20.878;2023-03-11T01:01:43;24.83;;;14.83;;
50483;SDS011;36409;52.168;20.878;2023-03-11T01:04:15;29.75;;;15.78;;
50483;SDS011;36409;52.168;20.878;2023-03-11T01:06:45;30.03;;;16.00;;
50483;SDS011;36409;52.168;20.878;2023-03-11T01:09:15;27.90;;;15.20;;
50483;SDS011;36409;52.168;20.878;2023-03-11T01:11:46;30.80;;;15.03;;
50483;SDS011;36409;52.168;20.878;2023-03-11T01:14:20;25.70;;;13.67;;
50483;SDS011;36409;52.168;20.878;2023-03-11T01:16:52;28.40;;;13.50;;
50483;SDS011;36409;52.168;20.878;2023-03-11T01:19:22;25.83;;;14.23;;
50483;SDS011;36409;52.168;20.878;2023-03-11T01:21:53;26.97;;;14.50;;
50483;SDS011;36409;52.168;20.878;2023-03-11T01:24:23;33.17;;;14.33;;
50483;SDS011;36409;52.168;20.878;2023-03-11T01:26:52;27.90;;;14.20;;
50483;SDS011;36409;52.168;20.878;2023-03-11T01:29:24;29.33;;;14.23;;
50483;SDS011;36409;52.168;20.878;2023-03-11T01:31:53;23.47;;;13.80;;
50483;SDS011;36409;52.168;20.878;2023-03-11T01:34:23;26.13;;;13.60;;
50483;SDS011;36409;52.168;20.878;2023-03-11T01:36:52;27.03;;;14.40;;
50483;SDS011;36409;52.168;20.878;2023-03-11T01:39:22;26.35;;;13.30;;
50483;SDS011;36409;52.168;20.878;2023-03-11T01:41:52;27.77;;;15.10;;
50483;SDS011;36409;52.168;20.878;2023-03-11T01:44:23;23.97;;;13.57;;
50483;SDS011;36409;52.168;20.878;2023-03-11T01:50:03;26.77;;;13.93;;
50483;SDS011;36409;52.168;20.878;2023-03-11T01:52:36;29.57;;;14.53;;
50483;SDS011;36409;52.168;20.878;2023-03-11T01:55:09;26.37;;;13.90;;
50483;SDS011;36409;52.168;20.878;2023-03-11T01:57:41;23.43;;;12.63;;
50483;SDS011;36409;52.168;20.878;2023-03-11T02:00:14;24.37;;;14.03;;
50483;SDS011;36409;52.168;20.878;2023-03-11T02:02:45;25.30;;;13.53;;
50483;SDS011;36409;52.168;20.878;2023-03-11T02:05:19;28.40;;;12.97;;
50483;SDS011;36409;52.168;20.878;2023-03-11T02:07:53;24.52;;;13.53;;
50483;SDS011;36409;52.168;20.878;2023-03-11T02:10:27;25.80;;;14.17;;
50483;SDS011;36409;52.168;20.878;2023-03-11T02:12:58;23.90;;;12.97;;
50483;SDS011;36409;52.168;20.878;2023-03-11T02:15:30;25.00;;;11.77;;
50483;SDS011;36409;52.168;20.878;2023-03-11T02:18:01;23.67;;;12.40;;
50483;SDS011;36409;52.168;20.878;2023-03-11T02:20:38;22.23;;;11.63;;
50483;SDS011;36409;52.168;20.878;2023-03-11T02:23:16;21.63;;;11.30;;
50483;SDS011;36409;52.168;20.878;2023-03-11T02:25:55;22.27;;;11.40;;
50483;SDS011;36409;52.168;20.878;2023-03-11T02:28:30;22.73;;;11.47;;
50483;SDS011;36409;52.168;20.878;2023-03-11T02:31:04;21.85;;;11.10;;
50483;SDS011;36409;52.168;20.878;2023-03-11T02:33:34;24.60;;;11.73;;
50483;SDS011;36409;52.168;20.878;2023-03-11T02:36:05;22.77;;;11.57;;
50483;SDS011;36409;52.168;20.878;2023-03-11T02:38:56;22.17;;;11.63;;
50483;SDS011;36409;52.168;20.878;2023-03-11T02:41:29;22.20;;;11.40;;
50483;SDS011;36409;52.168;20.878;2023-03-11T02:44:02;25.57;;;11.30;;
50483;SDS011;36409;52.168;20.878;2023-03-11T02:46:32;22.03;;;12.23;;
50483;SDS011;36409;52.168;20.878;2023-03-11T02:49:04;23.35;;;10.70;;
50483;SDS011;36409;52.168;20.878;2023-03-11T02:51:34;18.07;;;10.93;;
50483;SDS011;36409;52.168;20.878;2023-03-11T02:54:04;22.07;;;11.57;;
50483;SDS011;36409;52.168;20.878;2023-03-11T02:56:34;20.90;;;11.10;;
50483;SDS011;36409;52.168;20.878;2023-03-11T02:59:04;20.20;;;10.97;;
50483;SDS011;36409;52.168;20.878;2023-03-11T03:01:33;19.67;;;11.40;;
50483;SDS011;36409;52.168;20.878;2023-03-11T03:04:03;22.00;;;10.83;;
50483;SDS011;36409;52.168;20.878;2023-03-11T03:06:33;19.63;;;11.10;;
50483;SDS011;36409;52.168;20.878;2023-03-11T03:09:06;18.27;;;9.87;;
50483;SDS011;36409;52.168;20.878;2023-03-11T03:11:35;17.67;;;9.30;;
50483;SDS011;36409;52.168;20.878;2023-03-11T03:14:05;20.50;;;10.33;;
50483;SDS011;36409;52.168;20.878;2023-03-11T03:16:34;19.30;;;10.10;;
50483;SDS011;36409;52.168;20.878;2023-03-11T03:19:03;19.37;;;10.73;;
50483;SDS011;36409;52.168;20.878;2023-03-11T03:21:37;23.25;;;11.83;;
50483;SDS011;36409;52.168;20.878;2023-03-11T03:24:09;23.27;;;11.10;;
50483;SDS011;36409;52.168;20.878;2023-03-11T03:26:38;25.83;;;12.80;;
50483;SDS011;36409;52.168;20.878;2023-03-11T03:29:09;25.93;;;12.90;;
50483;SDS011;36409;52.168;20.878;2023-03-11T03:31:38;26.53;;;13.57;;
50483;SDS011;36409;52.168;20.878;2023-03-11T03:34:12;22.45;;;12.10;;
50483;SDS011;36409;52.168;20.878;2023-03-11T03:36:43;37.77;;;17.17;;
50483;SDS011;36409;52.168;20.878;2023-03-11T03:39:17;35.93;;;17.87;;
50483;SDS011;36409;52.168;20.878;2023-03-11T03:41:48;34.17;;;17.47;;
50483;SDS011;36409;52.168;20.878;2023-03-11T03:44:17;33.20;;;16.50;;
50483;SDS011;36409;52.168;20.878;2023-03-11T03:46:49;48.33;;;21.90;;
50483;SDS011;36409;52.168;20.878;2023-03-11T03:49:19;42.40;;;18.33;;
50483;SDS011;36409;52.168;20.878;2023-03-11T03:51:49;46.73;;;21.57;;
50483;SDS011;36409;52.168;20.878;2023-03-11T03:54:28;38.87;;;17.33;;
50483;SDS011;36409;52.168;20.878;2023-03-11T03:56:58;67.23;;;28.27;;
50483;SDS011;36409;52.168;20.878;2023-03-11T03:59:29;51.33;;;24.77;;
50483;SDS011;36409;52.168;20.878;2023-03-11T04:01:59;66.63;;;27.67;;
50483;SDS011;36409;52.168;20.878;2023-03-11T04:04:31;78.83;;;35.10;;
50483;SDS011;36409;52.168;20.878;2023-03-11T04:09:44;66.17;;;29.03;;
50483;SDS011;36409;52.168;20.878;2023-03-11T04:12:15;49.77;;;22.07;;
50483;SDS011;36409;52.168;20.878;2023-03-11T04:14:46;33.10;;;16.77;;
50483;SDS011;36409;52.168;20.878;2023-03-11T04:17:16;28.73;;;13.70;;
50483;SDS011;36409;52.168;20.878;2023-03-11T04:19:46;30.40;;;14.63;;
50483;SDS011;36409;52.168;20.878;2023-03-11T04:22:16;23.07;;;12.13;;
50483;SDS011;36409;52.168;20.878;2023-03-11T04:24:45;38.33;;;17.50;;
50483;SDS011;36409;52.168;20.878;2023-03-11T04:27:14;36.80;;;15.10;;
50483;SDS011;36409;52.168;20.878;2023-03-11T04:29:44;28.83;;;14.00;;
50483;SDS011;36409;52.168;20.878;2023-03-11T04:32:13;33.70;;;14.53;;
50483;SDS011;36409;52.168;20.878;2023-03-11T04:34:44;25.03;;;12.03;;
50483;SDS011;36409;52.168;20.878;2023-03-11T04:37:16;28.00;;;12.97;;
50483;SDS011;36409;52.168;20.878;2023-03-11T04:39:48;23.17;;;11.73;;
50483;SDS011;36409;52.168;20.878;2023-03-11T04:42:19;21.30;;;11.50;;
50483;SDS011;36409;52.168;20.878;2023-03-11T04:44:49;24.90;;;11.23;;
50483;SDS011;36409;52.168;20.878;2023-03-11T04:47:18;19.30;;;10.43;;
50483;SDS011;36409;52.168;20.878;2023-03-11T04:50:03;20.07;;;9.93;;
50483;SDS011;36409;52.168;20.878;2023-03-11T04:52:33;18.17;;;10.20;;
50483;SDS011;36409;52.168;20.878;2023-03-11T04:55:04;20.40;;;10.73;;
50483;SDS011;36409;52.168;20.878;2023-03-11T04:57:38;16.90;;;8.97;;
50483;SDS011;36409;52.168;20.878;2023-03-11T05:00:12;22.53;;;9.17;;
50483;SDS011;36409;52.168;20.878;2023-03-11T05:02:44;14.75;;;8.25;;
50483;SDS011;36409;52.168;20.878;2023-03-11T05:05:14;14.63;;;7.63;;
50483;SDS011;36409;52.168;20.878;2023-03-11T05:07:46;17.60;;;8.17;;
50483;SDS011;36409;52.168;20.878;2023-03-11T05:10:15;19.33;;;8.37;;
50483;SDS011;36409;52.168;20.878;2023-03-11T05:12:52;13.50;;;7.37;;
50483;SDS011;36409;52.168;20.878;2023-03-11T05:15:23;15.17;;;6.87;;
50483;SDS011;36409;52.168;20.878;2023-03-11T05:17:52;12.50;;;6.27;;
50483;SDS011;36409;52.168;20.878;2023-03-11T05:20:36;12.97;;;5.87;;
50483;SDS011;36409;52.168;20.878;2023-03-11T05:23:12;10.70;;;5.60;;
50483;SDS011;36409;52.168;20.878;2023-03-11T05:25:41;11.73;;;6.07;;
50483;SDS011;36409;52.168;20.878;2023-03-11T05:28:15;12.23;;;5.10;;
50483;SDS011;36409;52.168;20.878;2023-03-11T05:30:49;11.50;;;5.30;;
50483;SDS011;36409;52.168;20.878;2023-03-11T05:33:19;10.83;;;5.17;;
50483;SDS011;36409;52.168;20.878;2023-03-11T05:35:49;15.37;;;4.87;;
50483;SDS011;36409;52.168;20.878;2023-03-11T05:38:19;12.03;;;4.97;;
50483;SDS011;36409;52.168;20.878;2023-03-11T05:40:49;12.70;;;5.17;;
50483;SDS011;36409;52.168;20.878;2023-03-11T05:43:23;18.43;;;5.07;;
50483;SDS011;36409;52.168;20.878;2023-03-11T05:45:55;10.80;;;5.07;;
50483;SDS011;36409;52.168;20.878;2023-03-11T05:48:39;9.40;;;4.37;;
50483;SDS011;36409;52.168;20.878;2023-03-11T05:51:09;10.17;;;4.70;;
50483;SDS011;36409;52.168;20.878;2023-03-11T05:53:44;10.37;;;5.20;;
50483;SDS011;36409;52.168;20.878;2023-03-11T05:56:19;8.03;;;4.07;;
50483;SDS011;36409;52.168;20.878;2023-03-11T05:58:55;10.07;;;5.10;;
50483;SDS011;36409;52.168;20.878;2023-03-11T06:01:26;10.20;;;5.10;;
50483;SDS011;36409;52.168;20.878;2023-03-11T06:04:07;8.77;;;4.90;;
50483;SDS011;36409;52.168;20.878;2023-03-11T06:06:48;11.50;;;5.17;;
50483;SDS011;36409;52.168;20.878;2023-03-11T06:09:21;11.03;;;5.87;;
50483;SDS011;36409;52.168;20.878;2023-03-11T06:11:55;13.20;;;5.70;;
50483;SDS011;36409;52.168;20.878;2023-03-11T06:14:27;11.43;;;5.73;;
50483;SDS011;36409;52.168;20.878;2023-03-11T06:17:01;9.70;;;5.30;;
50483;SDS011;36409;52.168;20.878;2023-03-11T06:19:30;11.07;;;6.03;;
50483;SDS011;36409;52.168;20.878;2023-03-11T06:22:09;9.83;;;5.60;;
50483;SDS011;36409;52.168;20.878;2023-03-11T06:24:39;9.70;;;5.57;;
50483;SDS011;36409;52.168;20.878;2023-03-11T06:27:08;10.73;;;5.93;;
50483;SDS011;36409;52.168;20.878;2023-03-11T06:29:39;10.87;;;5.77;;
50483;SDS011;36409;52.168;20.878;2023-03-11T06:32:09;12.43;;;6.17;;
50483;SDS011;36409;52.168;20.878;2023-03-11T06:34:38;9.60;;;5.70;;
50483;SDS011;36409;52.168;20.878;2023-03-11T06:37:16;10.90;;;5.90;;
50483;SDS011;36409;52.168;20.878;2023-03-11T06:39:55;11.03;;;6.07;;
50483;SDS011;36409;52.168;20.878;2023-03-11T06:42:29;8.70;;;5.47;;
50483;SDS011;36409;52.168;20.878;2023-03-11T06:45:03;11.20;;;5.33;;
50483;SDS011;36409;52.168;20.878;2023-03-11T06:47:34;10.43;;;6.10;;
50483;SDS011;36409;52.168;20.878;2023-03-11T06:50:08;8.75;;;5.70;;
50483;SDS011;36409;52.168;20.878;2023-03-11T06:52:38;7.90;;;5.25;;
50483;SDS011;36409;52.168;20.878;2023-03-11T06:55:08;9.57;;;6.00;;
50483;SDS011;36409;52.168;20.878;2023-03-11T06:57:38;10.60;;;6.13;;
50483;SDS011;36409;52.168;20.878;2023-03-11T07:00:10;9.70;;;5.83;;
50483;SDS011;36409;52.168;20.878;2023-03-11T07:02:46;10.77;;;6.40;;
50483;SDS011;36409;52.168;20.878;2023-03-11T07:05:17;10.57;;;6.47;;
50483;SDS011;36409;52.168;20.878;2023-03-11T07:07:54;11.17;;;6.80;;
50483;SDS011;36409;52.168;20.878;2023-03-11T07:10:26;13.53;;;6.80;;
50483;SDS011;36409;52.168;20.878;2023-03-11T07:12:56;14.63;;;6.90;;
50483;SDS011;36409;52.168;20.878;2023-03-11T07:15:26;10.37;;;7.00;;
50483;SDS011;36409;52.168;20.878;2023-03-11T07:17:55;9.80;;;6.63;;
50483;SDS011;36409;52.168;20.878;2023-03-11T07:20:26;11.30;;;7.23;;
50483;SDS011;36409;52.168;20.878;2023-03-11T07:22:56;12.87;;;7.20;;
50483;SDS011;36409;52.168;20.878;2023-03-11T07:25:27;13.37;;;8.27;;
50483;SDS011;36409;52.168;20.878;2023-03-11T07:27:57;19.53;;;10.17;;
50483;SDS011;36409;52.168;20.878;2023-03-11T07:30:27;17.87;;;11.20;;
50483;SDS011;36409;52.168;20.878;2023-03-11T07:32:56;11.43;;;8.50;;
50483;SDS011;36409;52.168;20.878;2023-03-11T07:35:26;20.87;;;11.73;;
50483;SDS011;36409;52.168;20.878;2023-03-11T07:37:58;30.97;;;17.27;;
50483;SDS011;36409;52.168;20.878;2023-03-11T07:40:29;37.23;;;19.27;;
50483;SDS011;36409;52.168;20.878;2023-03-11T07:42:58;29.73;;;16.70;;
50483;SDS011;36409;52.168;20.878;2023-03-11T07:45:32;34.13;;;16.17;;
50483;SDS011;36409;52.168;20.878;2023-03-11T07:48:03;69.80;;;29.27;;
50483;SDS011;36409;52.168;20.878;2023-03-11T07:50:42;49.40;;;24.37;;
50483;SDS011;36409;52.168;20.878;2023-03-11T07:53:11;41.20;;;20.83;;
50483;SDS011;36409;52.168;20.878;2023-03-11T07:55:40;22.03;;;12.93;;
50483;SDS011;36409;52.168;20.878;2023-03-11T07:58:10;17.73;;;10.83;;
50483;SDS011;36409;52.168;20.878;2023-03-11T08:00:39;18.17;;;12.17;;
50483;SDS011;36409;52.168;20.878;2023-03-11T08:03:08;17.80;;;11.40;;
50483;SDS011;36409;52.168;20.878;2023-03-11T08:05:38;17.03;;;12.10;;
50483;SDS011;36409;52.168;20.878;2023-03-11T08:11:48;14.53;;;9.90;;
50483;SDS011;36409;52.168;20.878;2023-03-11T08:14:20;15.90;;;12.93;;
50483;SDS011;36409;52.168;20.878;2023-03-11T08:19:36;13.88;;;10.48;;
50483;SDS011;36409;52.168;20.878;2023-03-11T08:22:10;13.23;;;10.17;;
50483;SDS011;36409;52.168;20.878;2023-03-11T08:24:50;16.00;;;12.37;;
50483;SDS011;36409;52.168;20.878;2023-03-11T08:27:30;14.73;;;11.67;;
50483;SDS011;36409;52.168;20.878;2023-03-11T08:32:57;12.77;;;10.20;;
50483;SDS011;36409;52.168;20.878;2023-03-11T08:35:39;15.73;;;12.33;;
50483;SDS011;36409;52.168;20.878;2023-03-11T08:38:13;19.30;;;12.03;;
50483;SDS011;36409;52.168;20.878;2023-03-11T08:40:52;15.93;;;13.40;;
50483;SDS011;36409;52.168;20.878;2023-03-11T08:43:24;14.30;;;12.17;;
50483;SDS011;36409;52.168;20.878;2023-03-11T08:46:07;15.00;;;12.00;;
50483;SDS011;36409;52.168;20.878;2023-03-11T08:48:45;14.63;;;11.73;;
50483;SDS011;36409;52.168;20.878;2023-03-11T08:51:18;16.70;;;12.37;;
50483;SDS011;36409;52.168;20.878;2023-03-11T08:54:10;14.87;;;11.63;;
50483;SDS011;36409;52.168;20.878;2023-03-11T08:56:45;13.58;;;12.00;;
50483;SDS011;36409;52.168;20.878;2023-03-11T08:59:23;12.00;;;9.73;;
50483;SDS011;36409;52.168;20.878;2023-03-11T09:02:04;14.50;;;11.30;;
50483;SDS011;36409;52.168;20.878;2023-03-11T09:04:51;12.20;;;10.10;;
50483;SDS011;36409;52.168;20.878;2023-03-11T09:07:33;12.20;;;9.75;;
50483;SDS011;36409;52.168;20.878;2023-03-11T09:11:03;15.37;;;10.93;;
50483;SDS011;36409;52.168;20.878;2023-03-11T09:14:45;11.03;;;8.07;;
50483;SDS011;36409;52.168;20.878;2023-03-11T09:21:08;14.83;;;9.27;;
50483;SDS011;36409;52.168;20.878;2023-03-11T09:27:33;18.07;;;13.43;;
50483;SDS011;36409;52.168;20.878;2023-03-11T09:30:02;33.63;;;20.73;;
50483;SDS011;36409;52.168;20.878;2023-03-11T09:32:33;27.33;;;16.73;;
50483;SDS011;36409;52.168;20.878;2023-03-11T09:35:02;25.20;;;16.23;;
50483;SDS011;36409;52.168;20.878;2023-03-11T09:37:32;23.37;;;13.60;;
50483;SDS011;36409;52.168;20.878;2023-03-11T09:40:03;22.10;;;14.43;;
50483;SDS011;36409;52.168;20.878;2023-03-11T09:42:36;21.07;;;12.37;;
50483;SDS011;36409;52.168;20.878;2023-03-11T09:45:12;19.50;;;11.70;;
50483;SDS011;36409;52.168;20.878;2023-03-11T09:47:45;23.37;;;13.87;;
50483;SDS011;36409;52.168;20.878;2023-03-11T09:50:30;22.50;;;13.90;;
50483;SDS011;36409;52.168;20.878;2023-03-11T09:53:14;25.63;;;13.97;;
50483;SDS011;36409;52.168;20.878;2023-03-11T09:55:51;24.47;;;13.70;;
50483;SDS011;36409;52.168;20.878;2023-03-11T09:58:24;24.13;;;13.97;;
50483;SDS011;36409;52.168;20.878;2023-03-11T10:01:09;22.13;;;13.53;;
50483;SDS011;36409;52.168;20.878;2023-03-11T10:03:46;22.47;;;12.67;;
50483;SDS011;36409;52.168;20.878;2023-03-11T10:06:19;26.30;;;15.97;;
50483;SDS011;36409;52.168;20.878;2023-03-11T10:09:02;25.50;;;13.87;;
50483;SDS011;36409;52.168;20.878;2023-03-11T10:11:50;25.07;;;15.33;;
50483;SDS011;36409;52.168;20.878;2023-03-11T10:14:49;22.07;;;12.40;;
50483;SDS011;36409;52.168;20.878;2023-03-11T10:17:38;20.20;;;10.40;;
50483;SDS011;36409;52.168;20.878;2023-03-11T10:23:02;10.00;;;6.43;;
50483;SDS011;36409;52.168;20.878;2023-03-11T10:25:47;9.53;;;5.43;;
50483;SDS011;36409;52.168;20.878;2023-03-11T10:28:22;9.43;;;5.03;;
50483;SDS011;36409;52.168;20.878;2023-03-11T10:30:56;8.05;;;4.67;;
50483;SDS011;36409;52.168;20.878;2023-03-11T10:33:32;8.17;;;4.83;;
50483;SDS011;36409;52.168;20.878;2023-03-11T10:36:08;8.33;;;4.23;;
50483;SDS011;36409;52.168;20.878;2023-03-11T10:38:44;8.10;;;4.67;;
50483;SDS011;36409;52.168;20.878;2023-03-11T10:41:16;8.27;;;4.90;;
50483;SDS011;36409;52.168;20.878;2023-03-11T10:43:53;9.37;;;5.10;;
50483;SDS011;36409;52.168;20.878;2023-03-11T10:46:28;8.30;;;5.40;;
50483;SDS011;36409;52.168;20.878;2023-03-11T10:48:57;10.30;;;6.73;;
50483;SDS011;36409;52.168;20.878;2023-03-11T10:51:31;9.67;;;6.00;;
50483;SDS011;36409;52.168;20.878;2023-03-11T10:54:02;9.98;;;6.60;;
50483;SDS011;36409;52.168;20.878;2023-03-11T10:56:33;11.50;;;7.97;;
50483;SDS011;36409;52.168;20.878;2023-03-11T10:59:05;9.63;;;6.60;;
50483;SDS011;36409;52.168;20.878;2023-03-11T11:01:53;11.43;;;7.80;;
50483;SDS011;36409;52.168;20.878;2023-03-11T11:06:57;9.93;;;6.30;;
50483;SDS011;36409;52.168;20.878;2023-03-11T11:09:50;9.43;;;6.23;;
50483;SDS011;36409;52.168;20.878;2023-03-11T11:12:50;9.43;;;5.50;;
50483;SDS011;36409;52.168;20.878;2023-03-11T11:15:24;9.37;;;5.27;;
50483;SDS011;36409;52.168;20.878;2023-03-11T11:17:56;8.85;;;5.30;;
50483;SDS011;36409;52.168;20.878;2023-03-11T11:20:32;7.97;;;4.87;;
50483;SDS011;36409;52.168;20.878;2023-03-11T11:23:24;9.07;;;4.97;;
50483;SDS011;36409;52.168;20.878;2023-03-11T11:25:58;7.20;;;4.70;;
50483;SDS011;36409;52.168;20.878;2023-03-11T11:28:32;7.20;;;4.20;;
50483;SDS011;36409;52.168;20.878;2023-03-11T11:31:18;8.57;;;4.27;;
50483;SDS011;36409;52.168;20.878;2023-03-11T11:33:52;10.13;;;5.70;;
50483;SDS011;36409;52.168;20.878;2023-03-11T11:36:26;7.93;;;4.67;;
50483;SDS011;36409;52.168;20.878;2023-03-11T11:38:59;7.97;;;4.90;;
50483;SDS011;36409;52.168;20.878;2023-03-11T11:41:38;9.97;;;5.57;;
50483;SDS011;36409;52.168;20.878;2023-03-11T11:44:11;8.40;;;5.20;;
50483;SDS011;36409;52.168;20.878;2023-03-11T11:46:48;7.37;;;4.93;;
50483;SDS011;36409;52.168;20.878;2023-03-11T11:49:23;7.57;;;4.80;;
50483;SDS011;36409;52.168;20.878;2023-03-11T11:51:56;7.40;;;4.87;;
50483;SDS011;36409;52.168;20.878;2023-03-11T11:54:33;8.53;;;5.03;;
50483;SDS011;36409;52.168;20.878;2023-03-11T11:57:09;8.17;;;4.37;;
50483;SDS011;36409;52.168;20.878;2023-03-11T11:59:40;7.73;;;4.90;;
50483;SDS011;36409;52.168;20.878;2023-03-11T12:02:15;7.47;;;4.53;;
50483;SDS011;36409;52.168;20.878;2023-03-11T12:05:07;7.90;;;5.00;;
50483;SDS011;36409;52.168;20.878;2023-03-11T12:07:46;7.97;;;4.50;;
50483;SDS011;36409;52.168;20.878;2023-03-11T12:10:28;8.60;;;5.10;;
50483;SDS011;36409;52.168;20.878;2023-03-11T12:13:10;8.87;;;5.13;;
50483;SDS011;36409;52.168;20.878;2023-03-11T12:15:52;10.97;;;5.20;;
50483;SDS011;36409;52.168;20.878;2023-03-11T12:18:35;10.17;;;5.47;;
50483;SDS011;36409;52.168;20.878;2023-03-11T12:21:14;7.93;;;4.90;;
50483;SDS011;36409;52.168;20.878;2023-03-11T12:24:03;9.00;;;5.57;;
50483;SDS011;36409;52.168;20.878;2023-03-11T12:26:47;11.47;;;5.90;;
50483;SDS011;36409;52.168;20.878;2023-03-11T12:29:21;10.10;;;5.77;;
50483;SDS011;36409;52.168;20.878;2023-03-11T12:31:55;11.10;;;5.57;;
50483;SDS011;36409;52.168;20.878;2023-03-11T12:34:29;7.65;;;4.83;;
50483;SDS011;36409;52.168;20.878;2023-03-11T12:37:02;11.90;;;5.50;;
50483;SDS011;36409;52.168;20.878;2023-03-11T12:39:43;8.87;;;5.67;;
50483;SDS011;36409;52.168;20.878;2023-03-11T12:42:19;9.13;;;5.63;;
50483;SDS011;36409;52.168;20.878;2023-03-11T12:44:51;8.10;;;5.63;;
50483;SDS011;36409;52.168;20.878;2023-03-11T12:47:22;8.40;;;5.60;;
50483;SDS011;36409;52.168;20.878;2023-03-11T12:49:53;12.07;;;6.13;;
50483;SDS011;36409;52.168;20.878;2023-03-11T12:52:53;9.53;;;5.70;;
50483;SDS011;36409;52.168;20.878;2023-03-11T12:55:27;8.70;;;5.30;;
50483;SDS011;36409;52.168;20.878;2023-03-11T13:01:23;9.27;;;5.83;;
50483;SDS011;36409;52.168;20.878;2023-03-11T13:04:15;10.87;;;6.77;;
50483;SDS011;36409;52.168;20.878;2023-03-11T13:12:42;10.57;;;6.67;;
50483;SDS011;36409;52.168;20.878;2023-03-11T13:15:24;9.23;;;6.07;;
50483;SDS011;36409;52.168;20.878;2023-03-11T13:17:58;9.57;;;5.77;;
50483;SDS011;36409;52.168;20.878;2023-03-11T13:20:46;10.17;;;6.33;;
50483;SDS011;36409;52.168;20.878;2023-03-11T13:23:32;11.27;;;6.13;;
50483;SDS011;36409;52.168;20.878;2023-03-11T13:26:17;9.80;;;6.17;;
50483;SDS011;36409;52.168;20.878;2023-03-11T13:29:09;14.57;;;7.77;;
50483;SDS011;36409;52.168;20.878;2023-03-11T13:32:03;12.73;;;7.07;;
50483;SDS011;36409;52.168;20.878;2023-03-11T13:34:47;12.47;;;6.90;;
50483;SDS011;36409;52.168;20.878;2023-03-11T13:37:25;13.27;;;6.57;;
50483;SDS011;36409;52.168;20.878;2023-03-11T13:40:09;13.33;;;6.87;;
50483;SDS011;36409;52.168;20.878;2023-03-11T13:42:45;10.97;;;7.53;;
50483;SDS011;36409;52.168;20.878;2023-03-11T13:45:21;11.70;;;7.07;;
50483;SDS011;36409;52.168;20.878;2023-03-11T13:47:56;12.13;;;5.97;;
50483;SDS011;36409;52.168;20.878;2023-03-11T13:50:29;10.13;;;6.63;;
50483;SDS011;36409;52.168;20.878;2023-03-11T13:53:05;9.58;;;6.60;;
50483;SDS011;36409;52.168;20.878;2023-03-11T13:55:38;12.83;;;6.57;;
50483;SDS011;36409;52.168;20.878;2023-03-11T13:58:17;12.73;;;6.23;;
50483;SDS011;36409;52.168;20.878;2023-03-11T14:00:50;10.00;;;6.13;;
50483;SDS011;36409;52.168;20.878;2023-03-11T14:03:21;12.60;;;7.43;;
50483;SDS011;36409;52.168;20.878;2023-03-11T14:05:56;12.40;;;6.43;;
50483;SDS011;36409;52.168;20.878;2023-03-11T14:08:31;11.30;;;6.93;;
50483;SDS011;36409;52.168;20.878;2023-03-11T14:11:12;13.93;;;8.03;;
50483;SDS011;36409;52.168;20.878;2023-03-11T14:13:44;11.10;;;7.17;;
50483;SDS011;36409;52.168;20.878;2023-03-11T14:16:14;17.20;;;7.97;;
50483;SDS011;36409;52.168;20.878;2023-03-11T14:18:47;14.50;;;8.57;;
50483;SDS011;36409;52.168;20.878;2023-03-11T14:21:34;13.45;;;8.25;;
50483;SDS011;36409;52.168;20.878;2023-03-11T14:24:03;13.53;;;6.47;;
50483;SDS011;36409;52.168;20.878;2023-03-11T14:26:34;12.20;;;7.90;;
50483;SDS011;36409;52.168;20.878;2023-03-11T14:29:07;11.03;;;6.37;;
50483;SDS011;36409;52.168;20.878;2023-03-11T14:31:43;11.70;;;6.77;;
50483;SDS011;36409;52.168;20.878;2023-03-11T14:38:29;11.40;;;6.03;;
50483;SDS011;36409;52.168;20.878;2023-03-11T14:41:09;13.22;;;6.08;;
50483;SDS011;36409;52.168;20.878;2023-03-11T14:43:52;8.40;;;4.50;;
50483;SDS011;36409;52.168;20.878;2023-03-11T14:46:23;10.35;;;5.65;;
50483;SDS011;36409;52.168;20.878;2023-03-11T14:48:55;7.63;;;4.73;;
50483;SDS011;36409;52.168;20.878;2023-03-11T14:51:29;8.13;;;4.13;;
50483;SDS011;36409;52.168;20.878;2023-03-11T14:54:05;8.78;;;5.37;;
50483;SDS011;36409;52.168;20.878;2023-03-11T14:56:45;9.87;;;5.17;;
50483;SDS011;36409;52.168;20.878;2023-03-11T15:11:27;11.07;;;4.70;;
50483;SDS011;36409;52.168;20.878;2023-03-11T15:15:29;10.20;;;5.40;;
50483;SDS011;36409;52.168;20.878;2023-03-11T15:19:40;11.30;;;5.73;;
50483;SDS011;36409;52.168;20.878;2023-03-11T15:23:39;10.30;;;5.40;;
50483;SDS011;36409;52.168;20.878;2023-03-11T15:27:07;10.60;;;6.50;;
50483;SDS011;36409;52.168;20.878;2023-03-11T15:30:47;9.70;;;4.50;;
50483;SDS011;36409;52.168;20.878;2023-03-11T15:34:32;8.20;;;4.70;;
50483;SDS011;36409;52.168;20.878;2023-03-11T15:49:23;11.47;;;5.03;;
50483;SDS011;36409;52.168;20.878;2023-03-11T15:52:36;13.03;;;6.10;;
50483;SDS011;36409;52.168;20.878;2023-03-11T16:03:05;9.60;;;4.83;;
50483;SDS011;36409;52.168;20.878;2023-03-11T16:05:34;10.87;;;5.30;;
50483;SDS011;36409;52.168;20.878;2023-03-11T16:08:06;10.90;;;5.27;;
50483;SDS011;36409;52.168;20.878;2023-03-11T16:10:39;8.37;;;4.50;;
50483;SDS011;36409;52.168;20.878;2023-03-11T16:13:09;13.87;;;4.97;;
50483;SDS011;36409;52.168;20.878;2023-03-11T16:15:40;10.77;;;5.23;;
50483;SDS011;36409;52.168;20.878;2023-03-11T16:18:13;10.83;;;4.43;;
50483;SDS011;36409;52.168;20.878;2023-03-11T16:20:45;7.90;;;3.83;;
50483;SDS011;36409;52.168;20.878;2023-03-11T16:23:21;7.93;;;4.27;;